sensor_id;sensor_type;location;lat;lon;timestamp;P1;durP1;ratioP1;P2;durP2;ratioP2
52586;SDS011;38480;52.724;6.436;2022-07-15T00:02:12;13.23;;;4.30;;
52586;SDS011;38480;52.724;6.436;2022-07-15T00:04:38;16.83;;;3.83;;
52586;SDS011;38480;52.724;6.436;2022-07-15T00:07:04;11.77;;;4.13;;
52586;SDS011;38480;52.724;6.436;2022-07-15T00:09:31;13.10;;;5.60;;
52586;SDS011;38480;52.724;6.436;2022-07-15T00:12:16;17.20;;;5.40;;
52586;SDS011;38480;52.724;6.436;2022-07-15T00:14:42;17.20;;;4.57;;
52586;SDS011;38480;52.724;6.436;2022-07-15T00:17:09;11.43;;;4.90;;
52586;SDS011;38480;52.724;6.436;2022-07-15T00:19:35;10.00;;;4.10;;
52586;SDS011;38480;52.724;6.436;2022-07-15T00:22:01;14.43;;;3.80;;
52586;SDS011;38480;52.724;6.436;2022-07-15T00:24:28;14.60;;;5.13;;
52586;SDS011;38480;52.724;6.436;2022-07-15T00:26:54;15.43;;;5.60;;
52586;SDS011;38480;52.724;6.436;2022-07-15T00:29:20;17.33;;;4.53;;
52586;SDS011;38480;52.724;6.436;2022-07-15T00:31:46;16.10;;;5.10;;
52586;SDS011;38480;52.724;6.436;2022-07-15T00:34:12;15.43;;;4.60;;
52586;SDS011;38480;52.724;6.436;2022-07-15T00:36:38;18.10;;;4.50;;
52586;SDS011;38480;52.724;6.436;2022-07-15T00:39:04;13.47;;;4.87;;
52586;SDS011;38480;52.724;6.436;2022-07-15T00:41:37;12.83;;;4.13;;
52586;SDS011;38480;52.724;6.436;2022-07-15T00:44:04;13.50;;;4.68;;
52586;SDS011;38480;52.724;6.436;2022-07-15T00:46:30;13.57;;;4.90;;
52586;SDS011;38480;52.724;6.436;2022-07-15T00:48:57;10.83;;;4.20;;
52586;SDS011;38480;52.724;6.436;2022-07-15T00:51:23;11.20;;;3.63;;
52586;SDS011;38480;52.724;6.436;2022-07-15T00:53:49;12.30;;;3.87;;
52586;SDS011;38480;52.724;6.436;2022-07-15T00:56:16;11.17;;;4.03;;
52586;SDS011;38480;52.724;6.436;2022-07-15T00:58:43;11.53;;;3.97;;
52586;SDS011;38480;52.724;6.436;2022-07-15T01:01:10;17.47;;;4.83;;
52586;SDS011;38480;52.724;6.436;2022-07-15T01:03:36;12.40;;;4.10;;
52586;SDS011;38480;52.724;6.436;2022-07-15T01:06:02;14.57;;;4.27;;
52586;SDS011;38480;52.724;6.436;2022-07-15T01:08:29;11.67;;;3.47;;
52586;SDS011;38480;52.724;6.436;2022-07-15T01:10:55;12.53;;;4.63;;
52586;SDS011;38480;52.724;6.436;2022-07-15T01:13:21;13.73;;;3.77;;
52586;SDS011;38480;52.724;6.436;2022-07-15T01:15:48;12.63;;;4.37;;
52586;SDS011;38480;52.724;6.436;2022-07-15T01:18:14;13.13;;;4.57;;
52586;SDS011;38480;52.724;6.436;2022-07-15T01:20:44;10.53;;;4.00;;
52586;SDS011;38480;52.724;6.436;2022-07-15T01:23:13;13.82;;;4.82;;
52586;SDS011;38480;52.724;6.436;2022-07-15T01:25:40;9.97;;;4.27;;
52586;SDS011;38480;52.724;6.436;2022-07-15T01:28:07;13.13;;;4.80;;
52586;SDS011;38480;52.724;6.436;2022-07-15T01:30:33;19.43;;;4.00;;
52586;SDS011;38480;52.724;6.436;2022-07-15T01:33:01;12.73;;;3.90;;
52586;SDS011;38480;52.724;6.436;2022-07-15T01:35:27;9.40;;;3.57;;
52586;SDS011;38480;52.724;6.436;2022-07-15T01:37:56;15.37;;;3.77;;
52586;SDS011;38480;52.724;6.436;2022-07-15T01:40:22;12.60;;;3.13;;
52586;SDS011;38480;52.724;6.436;2022-07-15T01:42:48;16.53;;;2.80;;
52586;SDS011;38480;52.724;6.436;2022-07-15T01:45:14;9.80;;;3.60;;
52586;SDS011;38480;52.724;6.436;2022-07-15T01:47:41;14.77;;;3.13;;
52586;SDS011;38480;52.724;6.436;2022-07-15T01:50:07;11.43;;;3.20;;
52586;SDS011;38480;52.724;6.436;2022-07-15T01:52:33;12.10;;;3.40;;
52586;SDS011;38480;52.724;6.436;2022-07-15T01:54:59;19.60;;;3.77;;
52586;SDS011;38480;52.724;6.436;2022-07-15T01:57:25;9.10;;;2.93;;
52586;SDS011;38480;52.724;6.436;2022-07-15T01:59:51;12.83;;;2.90;;
52586;SDS011;38480;52.724;6.436;2022-07-15T02:02:17;8.43;;;3.03;;
52586;SDS011;38480;52.724;6.436;2022-07-15T02:04:43;11.43;;;3.30;;
52586;SDS011;38480;52.724;6.436;2022-07-15T02:07:09;9.13;;;3.33;;
52586;SDS011;38480;52.724;6.436;2022-07-15T02:09:35;12.77;;;3.47;;
52586;SDS011;38480;52.724;6.436;2022-07-15T02:12:01;22.80;;;4.60;;
52586;SDS011;38480;52.724;6.436;2022-07-15T02:14:28;13.03;;;3.43;;
52586;SDS011;38480;52.724;6.436;2022-07-15T02:16:54;12.27;;;2.87;;
52586;SDS011;38480;52.724;6.436;2022-07-15T02:19:20;7.50;;;3.23;;
52586;SDS011;38480;52.724;6.436;2022-07-15T02:21:46;9.13;;;3.20;;
52586;SDS011;38480;52.724;6.436;2022-07-15T02:24:13;12.20;;;3.47;;
52586;SDS011;38480;52.724;6.436;2022-07-15T02:26:39;11.27;;;3.00;;
52586;SDS011;38480;52.724;6.436;2022-07-15T02:29:06;11.27;;;2.97;;
52586;SDS011;38480;52.724;6.436;2022-07-15T02:31:32;12.40;;;3.40;;
52586;SDS011;38480;52.724;6.436;2022-07-15T02:34:00;12.50;;;3.00;;
52586;SDS011;38480;52.724;6.436;2022-07-15T02:36:26;14.57;;;3.00;;
52586;SDS011;38480;52.724;6.436;2022-07-15T02:38:52;9.67;;;3.30;;
52586;SDS011;38480;52.724;6.436;2022-07-15T02:41:18;10.57;;;3.70;;
52586;SDS011;38480;52.724;6.436;2022-07-15T02:43:44;6.70;;;3.00;;
52586;SDS011;38480;52.724;6.436;2022-07-15T02:46:10;16.20;;;3.30;;
52586;SDS011;38480;52.724;6.436;2022-07-15T02:48:36;16.97;;;4.10;;
52586;SDS011;38480;52.724;6.436;2022-07-15T02:51:03;15.07;;;3.80;;
52586;SDS011;38480;52.724;6.436;2022-07-15T02:53:29;13.47;;;4.40;;
52586;SDS011;38480;52.724;6.436;2022-07-15T02:55:58;7.67;;;3.87;;
52586;SDS011;38480;52.724;6.436;2022-07-15T02:58:25;9.80;;;3.23;;
52586;SDS011;38480;52.724;6.436;2022-07-15T03:00:51;11.37;;;3.80;;
52586;SDS011;38480;52.724;6.436;2022-07-15T03:03:17;13.87;;;4.37;;
52586;SDS011;38480;52.724;6.436;2022-07-15T03:05:43;10.70;;;4.07;;
52586;SDS011;38480;52.724;6.436;2022-07-15T03:08:09;17.30;;;4.87;;
52586;SDS011;38480;52.724;6.436;2022-07-15T03:10:35;16.47;;;4.97;;
52586;SDS011;38480;52.724;6.436;2022-07-15T03:13:01;13.40;;;5.87;;
52586;SDS011;38480;52.724;6.436;2022-07-15T03:15:28;18.40;;;5.97;;
52586;SDS011;38480;52.724;6.436;2022-07-15T03:17:54;17.03;;;5.30;;
52586;SDS011;38480;52.724;6.436;2022-07-15T03:20:20;13.80;;;5.30;;
52586;SDS011;38480;52.724;6.436;2022-07-15T03:22:46;15.63;;;5.30;;
52586;SDS011;38480;52.724;6.436;2022-07-15T03:25:12;11.80;;;4.80;;
52586;SDS011;38480;52.724;6.436;2022-07-15T03:27:38;18.47;;;5.63;;
52586;SDS011;38480;52.724;6.436;2022-07-15T03:30:04;19.40;;;5.70;;
52586;SDS011;38480;52.724;6.436;2022-07-15T03:32:31;16.93;;;5.63;;
52586;SDS011;38480;52.724;6.436;2022-07-15T03:34:57;18.13;;;5.77;;
52586;SDS011;38480;52.724;6.436;2022-07-15T03:37:24;17.50;;;6.00;;
52586;SDS011;38480;52.724;6.436;2022-07-15T03:39:50;15.93;;;6.30;;
52586;SDS011;38480;52.724;6.436;2022-07-15T03:42:16;22.20;;;6.30;;
52586;SDS011;38480;52.724;6.436;2022-07-15T03:44:42;12.33;;;5.77;;
52586;SDS011;38480;52.724;6.436;2022-07-15T03:47:08;15.93;;;6.43;;
52586;SDS011;38480;52.724;6.436;2022-07-15T03:49:34;21.67;;;8.00;;
52586;SDS011;38480;52.724;6.436;2022-07-15T03:52:00;20.87;;;7.23;;
52586;SDS011;38480;52.724;6.436;2022-07-15T03:54:26;11.53;;;6.00;;
52586;SDS011;38480;52.724;6.436;2022-07-15T03:56:52;21.20;;;6.60;;
52586;SDS011;38480;52.724;6.436;2022-07-15T03:59:19;21.00;;;7.13;;
52586;SDS011;38480;52.724;6.436;2022-07-15T04:01:48;20.63;;;6.33;;
52586;SDS011;38480;52.724;6.436;2022-07-15T04:04:14;19.63;;;8.10;;
52586;SDS011;38480;52.724;6.436;2022-07-15T04:06:41;16.63;;;7.00;;
52586;SDS011;38480;52.724;6.436;2022-07-15T04:09:07;15.67;;;7.00;;
52586;SDS011;38480;52.724;6.436;2022-07-15T04:11:35;20.20;;;6.83;;
52586;SDS011;38480;52.724;6.436;2022-07-15T04:14:01;18.33;;;7.23;;
52586;SDS011;38480;52.724;6.436;2022-07-15T04:16:27;15.90;;;6.00;;
52586;SDS011;38480;52.724;6.436;2022-07-15T04:18:53;22.17;;;7.20;;
52586;SDS011;38480;52.724;6.436;2022-07-15T04:21:19;11.00;;;4.73;;
52586;SDS011;38480;52.724;6.436;2022-07-15T04:23:46;12.53;;;5.63;;
52586;SDS011;38480;52.724;6.436;2022-07-15T04:26:12;20.37;;;5.93;;
52586;SDS011;38480;52.724;6.436;2022-07-15T04:28:38;17.23;;;6.37;;
52586;SDS011;38480;52.724;6.436;2022-07-15T04:31:04;20.90;;;7.23;;
52586;SDS011;38480;52.724;6.436;2022-07-15T04:33:30;15.17;;;5.90;;
52586;SDS011;38480;52.724;6.436;2022-07-15T04:35:56;18.53;;;6.07;;
52586;SDS011;38480;52.724;6.436;2022-07-15T04:38:22;19.40;;;6.13;;
52586;SDS011;38480;52.724;6.436;2022-07-15T04:40:48;24.17;;;5.87;;
52586;SDS011;38480;52.724;6.436;2022-07-15T04:43:14;16.83;;;5.80;;
52586;SDS011;38480;52.724;6.436;2022-07-15T04:45:40;14.93;;;5.10;;
52586;SDS011;38480;52.724;6.436;2022-07-15T04:48:06;12.50;;;4.73;;
52586;SDS011;38480;52.724;6.436;2022-07-15T04:50:52;14.17;;;5.20;;
52586;SDS011;38480;52.724;6.436;2022-07-15T04:53:18;17.57;;;5.07;;
52586;SDS011;38480;52.724;6.436;2022-07-15T04:55:45;11.70;;;4.63;;
52586;SDS011;38480;52.724;6.436;2022-07-15T04:58:11;8.77;;;4.33;;
52586;SDS011;38480;52.724;6.436;2022-07-15T05:00:40;13.00;;;4.73;;
52586;SDS011;38480;52.724;6.436;2022-07-15T05:03:06;10.93;;;4.00;;
52586;SDS011;38480;52.724;6.436;2022-07-15T05:05:32;16.60;;;5.93;;
52586;SDS011;38480;52.724;6.436;2022-07-15T05:07:58;22.33;;;5.40;;
52586;SDS011;38480;52.724;6.436;2022-07-15T05:10:24;14.50;;;4.17;;
52586;SDS011;38480;52.724;6.436;2022-07-15T05:12:50;12.30;;;5.10;;
52586;SDS011;38480;52.724;6.436;2022-07-15T05:15:16;16.03;;;4.23;;
52586;SDS011;38480;52.724;6.436;2022-07-15T05:17:42;13.60;;;4.57;;
52586;SDS011;38480;52.724;6.436;2022-07-15T05:20:08;10.00;;;3.43;;
52586;SDS011;38480;52.724;6.436;2022-07-15T05:22:34;9.20;;;3.47;;
52586;SDS011;38480;52.724;6.436;2022-07-15T05:25:00;8.40;;;3.60;;
52586;SDS011;38480;52.724;6.436;2022-07-15T05:27:26;9.70;;;3.27;;
52586;SDS011;38480;52.724;6.436;2022-07-15T05:29:52;8.37;;;2.40;;
52586;SDS011;38480;52.724;6.436;2022-07-15T05:32:18;7.30;;;2.57;;
52586;SDS011;38480;52.724;6.436;2022-07-15T05:34:45;9.33;;;2.43;;
52586;SDS011;38480;52.724;6.436;2022-07-15T05:37:11;10.50;;;1.93;;
52586;SDS011;38480;52.724;6.436;2022-07-15T05:39:37;7.53;;;1.90;;
52586;SDS011;38480;52.724;6.436;2022-07-15T05:42:18;7.97;;;1.60;;
52586;SDS011;38480;52.724;6.436;2022-07-15T05:44:44;9.07;;;2.00;;
52586;SDS011;38480;52.724;6.436;2022-07-15T05:47:10;8.37;;;1.80;;
52586;SDS011;38480;52.724;6.436;2022-07-15T05:49:36;7.50;;;1.80;;
52586;SDS011;38480;52.724;6.436;2022-07-15T05:52:02;7.77;;;1.70;;
52586;SDS011;38480;52.724;6.436;2022-07-15T05:54:29;6.07;;;1.40;;
52586;SDS011;38480;52.724;6.436;2022-07-15T05:56:55;6.37;;;1.43;;
52586;SDS011;38480;52.724;6.436;2022-07-15T05:59:21;8.93;;;1.70;;
52586;SDS011;38480;52.724;6.436;2022-07-15T06:01:47;6.77;;;2.03;;
52586;SDS011;38480;52.724;6.436;2022-07-15T06:04:13;2.77;;;1.23;;
52586;SDS011;38480;52.724;6.436;2022-07-15T06:06:39;3.97;;;1.23;;
52586;SDS011;38480;52.724;6.436;2022-07-15T06:09:05;8.60;;;1.80;;
52586;SDS011;38480;52.724;6.436;2022-07-15T06:11:31;5.47;;;1.40;;
52586;SDS011;38480;52.724;6.436;2022-07-15T06:13:59;3.60;;;1.30;;
52586;SDS011;38480;52.724;6.436;2022-07-15T06:16:26;3.73;;;1.20;;
52586;SDS011;38480;52.724;6.436;2022-07-15T06:18:52;5.23;;;1.47;;
52586;SDS011;38480;52.724;6.436;2022-07-15T06:21:18;4.10;;;1.20;;
52586;SDS011;38480;52.724;6.436;2022-07-15T06:23:44;5.67;;;1.33;;
52586;SDS011;38480;52.724;6.436;2022-07-15T06:26:10;3.50;;;0.70;;
52586;SDS011;38480;52.724;6.436;2022-07-15T06:28:36;6.57;;;0.90;;
52586;SDS011;38480;52.724;6.436;2022-07-15T06:31:02;4.57;;;1.27;;
52586;SDS011;38480;52.724;6.436;2022-07-15T06:33:28;4.17;;;0.60;;
52586;SDS011;38480;52.724;6.436;2022-07-15T06:35:54;3.07;;;0.90;;
52586;SDS011;38480;52.724;6.436;2022-07-15T06:38:20;4.97;;;1.23;;
52586;SDS011;38480;52.724;6.436;2022-07-15T06:40:46;4.27;;;0.93;;
52586;SDS011;38480;52.724;6.436;2022-07-15T06:43:12;3.00;;;0.90;;
52586;SDS011;38480;52.724;6.436;2022-07-15T06:45:39;2.63;;;0.50;;
52586;SDS011;38480;52.724;6.436;2022-07-15T06:48:05;2.67;;;0.40;;
52586;SDS011;38480;52.724;6.436;2022-07-15T06:50:31;4.27;;;0.50;;
52586;SDS011;38480;52.724;6.436;2022-07-15T06:52:57;4.17;;;0.60;;
52586;SDS011;38480;52.724;6.436;2022-07-15T06:55:23;1.90;;;0.40;;
52586;SDS011;38480;52.724;6.436;2022-07-15T06:57:50;5.03;;;0.60;;
52586;SDS011;38480;52.724;6.436;2022-07-15T07:00:16;2.33;;;0.57;;
52586;SDS011;38480;52.724;6.436;2022-07-15T07:02:42;2.90;;;0.60;;
52586;SDS011;38480;52.724;6.436;2022-07-15T07:05:10;3.10;;;0.67;;
52586;SDS011;38480;52.724;6.436;2022-07-15T07:07:36;4.23;;;0.73;;
52586;SDS011;38480;52.724;6.436;2022-07-15T07:10:02;3.90;;;0.60;;
52586;SDS011;38480;52.724;6.436;2022-07-15T07:12:28;3.83;;;0.50;;
52586;SDS011;38480;52.724;6.436;2022-07-15T07:14:54;2.50;;;0.50;;
52586;SDS011;38480;52.724;6.436;2022-07-15T07:17:20;2.50;;;0.40;;
52586;SDS011;38480;52.724;6.436;2022-07-15T07:19:46;1.33;;;0.33;;
52586;SDS011;38480;52.724;6.436;2022-07-15T07:22:13;2.57;;;0.50;;
52586;SDS011;38480;52.724;6.436;2022-07-15T07:24:39;1.37;;;0.30;;
52586;SDS011;38480;52.724;6.436;2022-07-15T07:27:05;2.93;;;0.70;;
52586;SDS011;38480;52.724;6.436;2022-07-15T07:29:31;3.17;;;0.43;;
52586;SDS011;38480;52.724;6.436;2022-07-15T07:31:57;2.30;;;0.60;;
52586;SDS011;38480;52.724;6.436;2022-07-15T07:34:23;2.27;;;0.40;;
52586;SDS011;38480;52.724;6.436;2022-07-15T07:36:49;3.93;;;0.47;;
52586;SDS011;38480;52.724;6.436;2022-07-15T07:39:15;5.10;;;0.63;;
52586;SDS011;38480;52.724;6.436;2022-07-15T07:41:41;1.63;;;0.40;;
52586;SDS011;38480;52.724;6.436;2022-07-15T07:44:07;4.23;;;0.33;;
52586;SDS011;38480;52.724;6.436;2022-07-15T07:46:34;2.80;;;0.33;;
52586;SDS011;38480;52.724;6.436;2022-07-15T07:49:00;1.67;;;0.40;;
52586;SDS011;38480;52.724;6.436;2022-07-15T07:51:26;2.53;;;0.40;;
52586;SDS011;38480;52.724;6.436;2022-07-15T07:53:52;2.13;;;0.40;;
52586;SDS011;38480;52.724;6.436;2022-07-15T07:56:18;1.07;;;0.23;;
52586;SDS011;38480;52.724;6.436;2022-07-15T07:58:44;1.73;;;0.30;;
52586;SDS011;38480;52.724;6.436;2022-07-15T08:01:10;3.07;;;0.40;;
52586;SDS011;38480;52.724;6.436;2022-07-15T08:03:36;2.53;;;0.40;;
52586;SDS011;38480;52.724;6.436;2022-07-15T08:06:02;1.60;;;0.30;;
52586;SDS011;38480;52.724;6.436;2022-07-15T08:08:29;0.47;;;0.20;;
52586;SDS011;38480;52.724;6.436;2022-07-15T08:10:55;4.17;;;1.33;;
52586;SDS011;38480;52.724;6.436;2022-07-15T08:13:22;0.60;;;0.30;;
52586;SDS011;38480;52.724;6.436;2022-07-15T08:15:49;1.97;;;0.50;;
52586;SDS011;38480;52.724;6.436;2022-07-15T08:18:16;1.37;;;0.40;;
52586;SDS011;38480;52.724;6.436;2022-07-15T08:20:42;3.07;;;0.40;;
52586;SDS011;38480;52.724;6.436;2022-07-15T08:23:08;1.27;;;0.23;;
52586;SDS011;38480;52.724;6.436;2022-07-15T08:25:36;1.40;;;0.40;;
52586;SDS011;38480;52.724;6.436;2022-07-15T08:28:03;2.00;;;0.20;;
52586;SDS011;38480;52.724;6.436;2022-07-15T08:30:29;3.60;;;0.50;;
52586;SDS011;38480;52.724;6.436;2022-07-15T08:32:56;1.27;;;0.50;;
52586;SDS011;38480;52.724;6.436;2022-07-15T08:35:22;1.50;;;0.30;;
52586;SDS011;38480;52.724;6.436;2022-07-15T08:37:48;2.63;;;0.60;;
52586;SDS011;38480;52.724;6.436;2022-07-15T08:40:15;1.27;;;0.30;;
52586;SDS011;38480;52.724;6.436;2022-07-15T08:42:41;3.67;;;0.60;;
52586;SDS011;38480;52.724;6.436;2022-07-15T08:45:11;3.00;;;0.20;;
52586;SDS011;38480;52.724;6.436;2022-07-15T08:47:38;2.47;;;0.63;;
52586;SDS011;38480;52.724;6.436;2022-07-15T08:50:04;1.60;;;0.40;;
52586;SDS011;38480;52.724;6.436;2022-07-15T08:52:32;1.23;;;0.30;;
52586;SDS011;38480;52.724;6.436;2022-07-15T08:54:58;2.17;;;0.40;;
52586;SDS011;38480;52.724;6.436;2022-07-15T08:57:25;3.00;;;0.40;;
52586;SDS011;38480;52.724;6.436;2022-07-15T08:59:51;0.93;;;0.30;;
52586;SDS011;38480;52.724;6.436;2022-07-15T09:02:20;1.57;;;0.37;;
52586;SDS011;38480;52.724;6.436;2022-07-15T09:07:34;1.43;;;0.50;;
52586;SDS011;38480;52.724;6.436;2022-07-15T09:10:15;0.70;;;0.30;;
52586;SDS011;38480;52.724;6.436;2022-07-15T09:12:42;2.20;;;0.30;;
52586;SDS011;38480;52.724;6.436;2022-07-15T09:15:08;1.23;;;0.30;;
52586;SDS011;38480;52.724;6.436;2022-07-15T09:17:34;1.30;;;0.40;;
52586;SDS011;38480;52.724;6.436;2022-07-15T09:20:09;1.70;;;0.20;;
52586;SDS011;38480;52.724;6.436;2022-07-15T09:22:51;0.97;;;0.30;;
52586;SDS011;38480;52.724;6.436;2022-07-15T09:25:18;1.07;;;0.30;;
52586;SDS011;38480;52.724;6.436;2022-07-15T09:27:44;1.17;;;0.20;;
52586;SDS011;38480;52.724;6.436;2022-07-15T09:30:26;1.60;;;0.30;;
52586;SDS011;38480;52.724;6.436;2022-07-15T09:33:12;3.03;;;0.87;;
52586;SDS011;38480;52.724;6.436;2022-07-15T09:38:40;2.73;;;0.50;;
52586;SDS011;38480;52.724;6.436;2022-07-15T09:41:20;1.50;;;0.30;;
52586;SDS011;38480;52.724;6.436;2022-07-15T09:43:56;2.77;;;0.50;;
52586;SDS011;38480;52.724;6.436;2022-07-15T09:46:25;1.30;;;0.30;;
52586;SDS011;38480;52.724;6.436;2022-07-15T09:48:51;2.77;;;0.40;;
52586;SDS011;38480;52.724;6.436;2022-07-15T09:51:18;0.35;;;0.10;;
52586;SDS011;38480;52.724;6.436;2022-07-15T09:53:44;0.75;;;0.30;;
52586;SDS011;38480;52.724;6.436;2022-07-15T09:56:12;0.57;;;0.20;;
52586;SDS011;38480;52.724;6.436;2022-07-15T09:58:39;0.85;;;0.30;;
52586;SDS011;38480;52.724;6.436;2022-07-15T10:01:06;1.05;;;0.30;;
52586;SDS011;38480;52.724;6.436;2022-07-15T10:03:33;1.15;;;0.43;;
52586;SDS011;38480;52.724;6.436;2022-07-15T10:05:59;1.15;;;0.43;;
52586;SDS011;38480;52.724;6.436;2022-07-15T10:08:26;1.58;;;0.63;;
52586;SDS011;38480;52.724;6.436;2022-07-15T10:10:53;1.08;;;0.47;;
52586;SDS011;38480;52.724;6.436;2022-07-15T10:19:02;4.55;;;0.63;;
52586;SDS011;38480;52.724;6.436;2022-07-15T10:21:42;1.77;;;0.40;;
52586;SDS011;38480;52.724;6.436;2022-07-15T10:27:00;2.17;;;0.45;;
52586;SDS011;38480;52.724;6.436;2022-07-15T10:29:29;0.68;;;0.30;;
52586;SDS011;38480;52.724;6.436;2022-07-15T10:31:56;4.18;;;0.80;;
52586;SDS011;38480;52.724;6.436;2022-07-15T10:34:23;3.58;;;0.60;;
52586;SDS011;38480;52.724;6.436;2022-07-15T10:36:54;3.85;;;0.70;;
52586;SDS011;38480;52.724;6.436;2022-07-15T10:39:23;3.70;;;0.60;;
52586;SDS011;38480;52.724;6.436;2022-07-15T10:44:17;1.45;;;0.50;;
52586;SDS011;38480;52.724;6.436;2022-07-15T10:46:43;0.98;;;0.38;;
52586;SDS011;38480;52.724;6.436;2022-07-15T10:54:02;2.73;;;0.80;;
52586;SDS011;38480;52.724;6.436;2022-07-15T10:59:10;3.10;;;0.40;;
52586;SDS011;38480;52.724;6.436;2022-07-15T11:01:37;2.67;;;0.77;;
52586;SDS011;38480;52.724;6.436;2022-07-15T11:04:11;2.43;;;0.57;;
52586;SDS011;38480;52.724;6.436;2022-07-15T11:12:07;3.20;;;0.53;;
52586;SDS011;38480;52.724;6.436;2022-07-15T11:14:53;2.33;;;0.50;;
52586;SDS011;38480;52.724;6.436;2022-07-15T11:19:58;3.97;;;0.60;;
52586;SDS011;38480;52.724;6.436;2022-07-15T11:22:26;2.60;;;0.40;;
52586;SDS011;38480;52.724;6.436;2022-07-15T11:24:53;3.33;;;0.40;;
52586;SDS011;38480;52.724;6.436;2022-07-15T11:27:20;1.55;;;0.50;;
52586;SDS011;38480;52.724;6.436;2022-07-15T11:29:52;2.03;;;0.60;;
52586;SDS011;38480;52.724;6.436;2022-07-15T11:32:20;1.40;;;0.50;;
52586;SDS011;38480;52.724;6.436;2022-07-15T11:34:47;2.20;;;0.75;;
52586;SDS011;38480;52.724;6.436;2022-07-15T11:37:14;2.42;;;0.60;;
52586;SDS011;38480;52.724;6.436;2022-07-15T11:39:44;2.67;;;0.52;;
52586;SDS011;38480;52.724;6.436;2022-07-15T11:42:17;2.00;;;0.60;;
52586;SDS011;38480;52.724;6.436;2022-07-15T11:45:02;3.03;;;0.50;;
52586;SDS011;38480;52.724;6.436;2022-07-15T11:47:28;2.75;;;0.82;;
52586;SDS011;38480;52.724;6.436;2022-07-15T11:49:58;4.22;;;0.70;;
52586;SDS011;38480;52.724;6.436;2022-07-15T11:52:25;2.50;;;0.50;;
52586;SDS011;38480;52.724;6.436;2022-07-15T11:54:51;1.98;;;0.60;;
52586;SDS011;38480;52.724;6.436;2022-07-15T11:57:17;0.82;;;0.52;;
52586;SDS011;38480;52.724;6.436;2022-07-15T11:59:50;2.40;;;0.60;;
52586;SDS011;38480;52.724;6.436;2022-07-15T12:02:16;1.77;;;0.85;;
52586;SDS011;38480;52.724;6.436;2022-07-15T12:04:43;2.83;;;0.80;;
52586;SDS011;38480;52.724;6.436;2022-07-15T12:07:09;3.33;;;0.75;;
52586;SDS011;38480;52.724;6.436;2022-07-15T12:09:46;1.75;;;0.60;;
52586;SDS011;38480;52.724;6.436;2022-07-15T12:12:12;3.25;;;0.57;;
52586;SDS011;38480;52.724;6.436;2022-07-15T12:14:38;4.03;;;0.98;;
52586;SDS011;38480;52.724;6.436;2022-07-15T12:17:05;2.55;;;0.70;;
52586;SDS011;38480;52.724;6.436;2022-07-15T12:19:32;3.78;;;0.70;;
52586;SDS011;38480;52.724;6.436;2022-07-15T12:22:06;2.60;;;0.52;;
52586;SDS011;38480;52.724;6.436;2022-07-15T12:27:05;2.63;;;0.50;;
52586;SDS011;38480;52.724;6.436;2022-07-15T12:29:31;3.15;;;0.80;;
52586;SDS011;38480;52.724;6.436;2022-07-15T12:31:58;1.05;;;0.40;;
52586;SDS011;38480;52.724;6.436;2022-07-15T12:35:10;3.17;;;0.45;;
52586;SDS011;38480;52.724;6.436;2022-07-15T12:37:11;2.08;;;0.45;;
52586;SDS011;38480;52.724;6.436;2022-07-15T12:42:19;2.03;;;0.57;;
52586;SDS011;38480;52.724;6.436;2022-07-15T12:44:45;2.72;;;0.70;;
52586;SDS011;38480;52.724;6.436;2022-07-15T12:47:11;3.20;;;0.43;;
52586;SDS011;38480;52.724;6.436;2022-07-15T12:52:11;1.30;;;0.32;;
52586;SDS011;38480;52.724;6.436;2022-07-15T12:54:37;1.38;;;0.45;;
52586;SDS011;38480;52.724;6.436;2022-07-15T12:57:03;3.35;;;0.60;;
52586;SDS011;38480;52.724;6.436;2022-07-15T12:59:29;3.47;;;0.70;;
52586;SDS011;38480;52.724;6.436;2022-07-15T13:02:04;2.35;;;0.50;;
52586;SDS011;38480;52.724;6.436;2022-07-15T13:04:30;2.35;;;0.55;;
52586;SDS011;38480;52.724;6.436;2022-07-15T13:06:56;3.30;;;0.70;;
52586;SDS011;38480;52.724;6.436;2022-07-15T13:09:22;3.03;;;0.50;;
52586;SDS011;38480;52.724;6.436;2022-07-15T13:11:58;3.88;;;0.68;;
52586;SDS011;38480;52.724;6.436;2022-07-15T13:14:25;2.03;;;0.60;;
52586;SDS011;38480;52.724;6.436;2022-07-15T13:16:51;3.03;;;0.45;;
52586;SDS011;38480;52.724;6.436;2022-07-15T13:19:17;1.38;;;0.55;;
52586;SDS011;38480;52.724;6.436;2022-07-15T13:21:43;2.50;;;0.70;;
52586;SDS011;38480;52.724;6.436;2022-07-15T13:24:09;3.00;;;0.60;;
52586;SDS011;38480;52.724;6.436;2022-07-15T13:26:35;2.17;;;0.52;;
52586;SDS011;38480;52.724;6.436;2022-07-15T13:29:02;2.03;;;0.45;;
52586;SDS011;38480;52.724;6.436;2022-07-15T13:31:28;2.53;;;0.68;;
52586;SDS011;38480;52.724;6.436;2022-07-15T13:33:54;2.80;;;0.60;;
52586;SDS011;38480;52.724;6.436;2022-07-15T13:36:20;2.80;;;0.70;;
52586;SDS011;38480;52.724;6.436;2022-07-15T13:38:48;1.65;;;0.50;;
52586;SDS011;38480;52.724;6.436;2022-07-15T13:41:13;1.48;;;0.40;;
52586;SDS011;38480;52.724;6.436;2022-07-15T13:43:39;2.28;;;0.40;;
52586;SDS011;38480;52.724;6.436;2022-07-15T13:46:06;1.77;;;0.50;;
52586;SDS011;38480;52.724;6.436;2022-07-15T13:48:32;1.55;;;0.52;;
52586;SDS011;38480;52.724;6.436;2022-07-15T13:50:58;2.05;;;0.50;;
52586;SDS011;38480;52.724;6.436;2022-07-15T13:53:53;1.50;;;0.40;;
52586;SDS011;38480;52.724;6.436;2022-07-15T13:56:20;1.20;;;0.55;;
52586;SDS011;38480;52.724;6.436;2022-07-15T13:58:46;1.30;;;0.40;;
52586;SDS011;38480;52.724;6.436;2022-07-15T14:01:13;3.28;;;0.57;;
52586;SDS011;38480;52.724;6.436;2022-07-15T14:03:39;2.25;;;0.70;;
52586;SDS011;38480;52.724;6.436;2022-07-15T14:06:05;1.52;;;0.50;;
52586;SDS011;38480;52.724;6.436;2022-07-15T14:08:32;2.67;;;0.50;;
52586;SDS011;38480;52.724;6.436;2022-07-15T14:10:58;4.28;;;0.70;;
52586;SDS011;38480;52.724;6.436;2022-07-15T14:13:24;1.13;;;0.50;;
52586;SDS011;38480;52.724;6.436;2022-07-15T14:15:50;2.17;;;0.60;;
52586;SDS011;38480;52.724;6.436;2022-07-15T14:18:16;3.08;;;0.45;;
52586;SDS011;38480;52.724;6.436;2022-07-15T14:20:42;3.40;;;0.60;;
52586;SDS011;38480;52.724;6.436;2022-07-15T14:23:11;2.35;;;0.40;;
52586;SDS011;38480;52.724;6.436;2022-07-15T14:25:37;4.35;;;0.40;;
52586;SDS011;38480;52.724;6.436;2022-07-15T14:28:03;2.55;;;0.60;;
52586;SDS011;38480;52.724;6.436;2022-07-15T14:30:30;2.83;;;0.60;;
52586;SDS011;38480;52.724;6.436;2022-07-15T14:32:55;3.00;;;0.50;;
52586;SDS011;38480;52.724;6.436;2022-07-15T14:35:22;2.72;;;0.40;;
52586;SDS011;38480;52.724;6.436;2022-07-15T14:37:48;1.02;;;0.50;;
52586;SDS011;38480;52.724;6.436;2022-07-15T14:40:15;3.08;;;0.73;;
52586;SDS011;38480;52.724;6.436;2022-07-15T14:42:41;2.03;;;0.55;;
52586;SDS011;38480;52.724;6.436;2022-07-15T14:45:07;6.05;;;0.68;;
52586;SDS011;38480;52.724;6.436;2022-07-15T14:47:33;1.85;;;0.50;;
52586;SDS011;38480;52.724;6.436;2022-07-15T14:49:59;1.98;;;0.60;;
52586;SDS011;38480;52.724;6.436;2022-07-15T14:52:25;3.50;;;1.13;;
52586;SDS011;38480;52.724;6.436;2022-07-15T14:54:51;3.35;;;0.85;;
52586;SDS011;38480;52.724;6.436;2022-07-15T14:57:17;2.05;;;0.60;;
52586;SDS011;38480;52.724;6.436;2022-07-15T14:59:43;4.57;;;1.23;;
52586;SDS011;38480;52.724;6.436;2022-07-15T15:02:09;3.20;;;0.70;;
52586;SDS011;38480;52.724;6.436;2022-07-15T15:04:36;2.05;;;0.60;;
52586;SDS011;38480;52.724;6.436;2022-07-15T15:07:02;5.45;;;1.05;;
52586;SDS011;38480;52.724;6.436;2022-07-15T15:09:30;1.85;;;0.75;;
52586;SDS011;38480;52.724;6.436;2022-07-15T15:11:56;1.40;;;0.50;;
52586;SDS011;38480;52.724;6.436;2022-07-15T15:14:22;2.67;;;0.60;;
52586;SDS011;38480;52.724;6.436;2022-07-15T15:16:49;1.92;;;0.55;;
52586;SDS011;38480;52.724;6.436;2022-07-15T15:19:15;5.38;;;0.80;;
52586;SDS011;38480;52.724;6.436;2022-07-15T15:21:41;3.63;;;0.90;;
52586;SDS011;38480;52.724;6.436;2022-07-15T15:24:07;1.75;;;0.60;;